sensor_id;sensor_type;location;lat;lon;timestamp;P1;durP1;ratioP1;P2;durP2;ratioP2
17347;SDS011;8791;50.876;4.342;2022-10-03T00:02:33;29.30;;;10.07;;
17347;SDS011;8791;50.876;4.342;2022-10-03T00:05:26;17.57;;;10.43;;
17347;SDS011;8791;50.876;4.342;2022-10-03T00:08:06;22.77;;;10.40;;
17347;SDS011;8791;50.876;4.342;2022-10-03T00:10:45;28.40;;;11.20;;
17347;SDS011;8791;50.876;4.342;2022-10-03T00:13:19;23.63;;;10.27;;
17347;SDS011;8791;50.876;4.342;2022-10-03T00:15:54;25.20;;;10.47;;
17347;SDS011;8791;50.876;4.342;2022-10-03T00:18:32;17.57;;;9.60;;
17347;SDS011;8791;50.876;4.342;2022-10-03T00:21:12;25.90;;;9.50;;
17347;SDS011;8791;50.876;4.342;2022-10-03T00:23:48;23.33;;;10.20;;
17347;SDS011;8791;50.876;4.342;2022-10-03T00:26:22;19.97;;;9.23;;
17347;SDS011;8791;50.876;4.342;2022-10-03T00:31:55;22.90;;;9.40;;
17347;SDS011;8791;50.876;4.342;2022-10-03T00:34:31;24.83;;;9.90;;
17347;SDS011;8791;50.876;4.342;2022-10-03T00:37:18;14.23;;;8.83;;
17347;SDS011;8791;50.876;4.342;2022-10-03T00:43:02;22.17;;;9.23;;
17347;SDS011;8791;50.876;4.342;2022-10-03T00:46:18;18.00;;;9.33;;
17347;SDS011;8791;50.876;4.342;2022-10-03T00:52:05;16.70;;;8.20;;
17347;SDS011;8791;50.876;4.342;2022-10-03T00:54:58;23.23;;;9.40;;
17347;SDS011;8791;50.876;4.342;2022-10-03T00:57:43;22.40;;;9.87;;
17347;SDS011;8791;50.876;4.342;2022-10-03T01:00:36;22.30;;;9.07;;
17347;SDS011;8791;50.876;4.342;2022-10-03T01:03:09;15.80;;;8.73;;
17347;SDS011;8791;50.876;4.342;2022-10-03T01:05:48;17.53;;;8.10;;
17347;SDS011;8791;50.876;4.342;2022-10-03T01:08:39;22.30;;;8.70;;
17347;SDS011;8791;50.876;4.342;2022-10-03T01:11:18;22.50;;;9.17;;
17347;SDS011;8791;50.876;4.342;2022-10-03T01:13:55;21.20;;;8.27;;
17347;SDS011;8791;50.876;4.342;2022-10-03T01:16:33;19.43;;;9.27;;
17347;SDS011;8791;50.876;4.342;2022-10-03T01:19:11;20.23;;;8.07;;
17347;SDS011;8791;50.876;4.342;2022-10-03T01:21:59;17.60;;;8.70;;
17347;SDS011;8791;50.876;4.342;2022-10-03T01:24:46;20.10;;;8.93;;
17347;SDS011;8791;50.876;4.342;2022-10-03T01:27:18;16.17;;;8.10;;
17347;SDS011;8791;50.876;4.342;2022-10-03T01:29:55;24.03;;;8.80;;
17347;SDS011;8791;50.876;4.342;2022-10-03T01:32:45;19.83;;;8.90;;
17347;SDS011;8791;50.876;4.342;2022-10-03T01:35:24;29.33;;;9.47;;
17347;SDS011;8791;50.876;4.342;2022-10-03T01:37:57;23.47;;;9.37;;
17347;SDS011;8791;50.876;4.342;2022-10-03T01:40:33;16.10;;;8.00;;
17347;SDS011;8791;50.876;4.342;2022-10-03T01:43:08;18.37;;;8.53;;
17347;SDS011;8791;50.876;4.342;2022-10-03T01:45:43;17.80;;;9.07;;
17347;SDS011;8791;50.876;4.342;2022-10-03T01:48:18;19.30;;;8.50;;
17347;SDS011;8791;50.876;4.342;2022-10-03T01:50:53;20.70;;;8.40;;
17347;SDS011;8791;50.876;4.342;2022-10-03T01:53:28;14.27;;;7.93;;
17347;SDS011;8791;50.876;4.342;2022-10-03T01:56:07;14.40;;;7.70;;
17347;SDS011;8791;50.876;4.342;2022-10-03T01:58:43;21.13;;;8.50;;
17347;SDS011;8791;50.876;4.342;2022-10-03T02:01:23;16.77;;;8.40;;
17347;SDS011;8791;50.876;4.342;2022-10-03T02:03:56;18.10;;;8.77;;
17347;SDS011;8791;50.876;4.342;2022-10-03T02:06:33;22.00;;;8.47;;
17347;SDS011;8791;50.876;4.342;2022-10-03T02:09:10;21.23;;;8.30;;
17347;SDS011;8791;50.876;4.342;2022-10-03T02:11:55;20.90;;;8.30;;
17347;SDS011;8791;50.876;4.342;2022-10-03T02:14:34;21.03;;;8.87;;
17347;SDS011;8791;50.876;4.342;2022-10-03T02:17:13;13.17;;;8.10;;
17347;SDS011;8791;50.876;4.342;2022-10-03T02:19:50;19.43;;;7.80;;
17347;SDS011;8791;50.876;4.342;2022-10-03T02:22:30;21.53;;;9.77;;
17347;SDS011;8791;50.876;4.342;2022-10-03T02:25:22;18.07;;;7.90;;
17347;SDS011;8791;50.876;4.342;2022-10-03T02:28:07;15.10;;;8.47;;
17347;SDS011;8791;50.876;4.342;2022-10-03T02:34:00;25.63;;;9.10;;
17347;SDS011;8791;50.876;4.342;2022-10-03T02:36:45;18.90;;;8.23;;
17347;SDS011;8791;50.876;4.342;2022-10-03T02:42:32;30.93;;;9.33;;
17347;SDS011;8791;50.876;4.342;2022-10-03T02:45:32;17.63;;;8.67;;
17347;SDS011;8791;50.876;4.342;2022-10-03T02:54:21;16.37;;;8.57;;
17347;SDS011;8791;50.876;4.342;2022-10-03T03:00:07;11.33;;;8.00;;
17347;SDS011;8791;50.876;4.342;2022-10-03T03:05:43;16.23;;;8.17;;
17347;SDS011;8791;50.876;4.342;2022-10-03T03:08:44;18.00;;;8.57;;
17347;SDS011;8791;50.876;4.342;2022-10-03T03:17:29;13.93;;;7.47;;
17347;SDS011;8791;50.876;4.342;2022-10-03T03:20:05;16.43;;;7.43;;
17347;SDS011;8791;50.876;4.342;2022-10-03T03:22:50;16.80;;;8.13;;
17347;SDS011;8791;50.876;4.342;2022-10-03T03:25:48;19.77;;;8.27;;
17347;SDS011;8791;50.876;4.342;2022-10-03T03:28:28;13.83;;;7.57;;
17347;SDS011;8791;50.876;4.342;2022-10-03T03:31:04;12.70;;;7.90;;
17347;SDS011;8791;50.876;4.342;2022-10-03T03:33:37;15.77;;;8.03;;
17347;SDS011;8791;50.876;4.342;2022-10-03T03:36:16;20.93;;;8.30;;
17347;SDS011;8791;50.876;4.342;2022-10-03T03:38:51;17.27;;;8.37;;
17347;SDS011;8791;50.876;4.342;2022-10-03T03:41:30;19.17;;;7.90;;
17347;SDS011;8791;50.876;4.342;2022-10-03T03:44:27;19.93;;;8.23;;
17347;SDS011;8791;50.876;4.342;2022-10-03T03:47:11;19.00;;;10.73;;
17347;SDS011;8791;50.876;4.342;2022-10-03T03:53:34;19.73;;;8.43;;
17347;SDS011;8791;50.876;4.342;2022-10-03T03:56:23;9.63;;;8.33;;
17347;SDS011;8791;50.876;4.342;2022-10-03T03:59:07;12.97;;;8.27;;
17347;SDS011;8791;50.876;4.342;2022-10-03T04:01:46;18.47;;;7.73;;
17347;SDS011;8791;50.876;4.342;2022-10-03T04:04:39;16.40;;;8.27;;
17347;SDS011;8791;50.876;4.342;2022-10-03T04:07:19;17.80;;;7.87;;
17347;SDS011;8791;50.876;4.342;2022-10-03T04:12:56;19.20;;;7.40;;
17347;SDS011;8791;50.876;4.342;2022-10-03T04:15:59;15.87;;;7.80;;
17347;SDS011;8791;50.876;4.342;2022-10-03T04:18:47;14.00;;;8.43;;
17347;SDS011;8791;50.876;4.342;2022-10-03T04:21:27;14.53;;;7.77;;
17347;SDS011;8791;50.876;4.342;2022-10-03T04:27:06;9.73;;;7.87;;
17347;SDS011;8791;50.876;4.342;2022-10-03T04:29:51;13.43;;;7.67;;
17347;SDS011;8791;50.876;4.342;2022-10-03T04:32:33;13.77;;;7.73;;
17347;SDS011;8791;50.876;4.342;2022-10-03T04:38:14;10.87;;;8.27;;
17347;SDS011;8791;50.876;4.342;2022-10-03T04:40:49;18.60;;;8.50;;
17347;SDS011;8791;50.876;4.342;2022-10-03T04:43:28;13.13;;;7.40;;
17347;SDS011;8791;50.876;4.342;2022-10-03T04:46:04;13.53;;;7.33;;
17347;SDS011;8791;50.876;4.342;2022-10-03T04:48:43;13.43;;;7.50;;
17347;SDS011;8791;50.876;4.342;2022-10-03T04:51:17;17.30;;;7.60;;
17347;SDS011;8791;50.876;4.342;2022-10-03T04:53:57;19.47;;;7.13;;
17347;SDS011;8791;50.876;4.342;2022-10-03T04:56:39;14.60;;;7.77;;
17347;SDS011;8791;50.876;4.342;2022-10-03T04:59:22;14.17;;;7.80;;
17347;SDS011;8791;50.876;4.342;2022-10-03T05:02:02;16.23;;;8.03;;
17347;SDS011;8791;50.876;4.342;2022-10-03T05:04:42;20.97;;;7.93;;
17347;SDS011;8791;50.876;4.342;2022-10-03T05:07:19;16.07;;;7.53;;
17347;SDS011;8791;50.876;4.342;2022-10-03T05:09:55;17.30;;;7.70;;
17347;SDS011;8791;50.876;4.342;2022-10-03T05:12:28;11.73;;;7.73;;
17347;SDS011;8791;50.876;4.342;2022-10-03T05:15:10;14.93;;;7.73;;
17347;SDS011;8791;50.876;4.342;2022-10-03T05:17:47;9.50;;;7.57;;
17347;SDS011;8791;50.876;4.342;2022-10-03T05:20:40;9.93;;;8.23;;
17347;SDS011;8791;50.876;4.342;2022-10-03T05:23:18;13.10;;;7.43;;
17347;SDS011;8791;50.876;4.342;2022-10-03T05:25:56;14.30;;;7.03;;
17347;SDS011;8791;50.876;4.342;2022-10-03T05:28:31;16.30;;;8.10;;
17347;SDS011;8791;50.876;4.342;2022-10-03T05:31:06;11.70;;;8.00;;
17347;SDS011;8791;50.876;4.342;2022-10-03T05:33:48;8.67;;;7.00;;
17347;SDS011;8791;50.876;4.342;2022-10-03T05:36:28;15.07;;;7.80;;
17347;SDS011;8791;50.876;4.342;2022-10-03T05:39:14;14.00;;;7.53;;
17347;SDS011;8791;50.876;4.342;2022-10-03T05:41:53;13.77;;;7.53;;
17347;SDS011;8791;50.876;4.342;2022-10-03T05:44:31;18.43;;;7.33;;
17347;SDS011;8791;50.876;4.342;2022-10-03T05:47:08;10.17;;;7.43;;
17347;SDS011;8791;50.876;4.342;2022-10-03T05:50:01;16.10;;;7.80;;
17347;SDS011;8791;50.876;4.342;2022-10-03T05:52:45;11.87;;;7.03;;
17347;SDS011;8791;50.876;4.342;2022-10-03T05:55:28;11.93;;;7.80;;
17347;SDS011;8791;50.876;4.342;2022-10-03T05:58:29;14.37;;;8.20;;
17347;SDS011;8791;50.876;4.342;2022-10-03T06:04:17;9.80;;;7.03;;
17347;SDS011;8791;50.876;4.342;2022-10-03T06:07:02;11.53;;;7.60;;
17347;SDS011;8791;50.876;4.342;2022-10-03T06:09:45;8.90;;;7.20;;
17347;SDS011;8791;50.876;4.342;2022-10-03T06:12:42;12.43;;;7.13;;
17347;SDS011;8791;50.876;4.342;2022-10-03T06:15:23;13.93;;;7.93;;
17347;SDS011;8791;50.876;4.342;2022-10-03T06:18:08;13.03;;;7.97;;
17347;SDS011;8791;50.876;4.342;2022-10-03T06:21:03;11.87;;;7.53;;
17347;SDS011;8791;50.876;4.342;2022-10-03T06:23:57;13.17;;;8.13;;
17347;SDS011;8791;50.876;4.342;2022-10-03T06:26:55;12.77;;;8.13;;
17347;SDS011;8791;50.876;4.342;2022-10-03T06:29:48;16.97;;;7.97;;
17347;SDS011;8791;50.876;4.342;2022-10-03T06:32:48;9.20;;;7.17;;
17347;SDS011;8791;50.876;4.342;2022-10-03T06:35:56;12.00;;;7.63;;
17347;SDS011;8791;50.876;4.342;2022-10-03T06:45:03;9.37;;;7.70;;
17347;SDS011;8791;50.876;4.342;2022-10-03T06:48:01;16.57;;;7.50;;
17347;SDS011;8791;50.876;4.342;2022-10-03T06:53:42;13.13;;;7.83;;
17347;SDS011;8791;50.876;4.342;2022-10-03T06:56:46;11.53;;;8.03;;
17347;SDS011;8791;50.876;4.342;2022-10-03T06:59:43;11.83;;;7.73;;
17347;SDS011;8791;50.876;4.342;2022-10-03T07:11:47;12.00;;;7.97;;
17347;SDS011;8791;50.876;4.342;2022-10-03T07:23:56;9.57;;;7.00;;
17347;SDS011;8791;50.876;4.342;2022-10-03T07:26:46;16.60;;;7.97;;
17347;SDS011;8791;50.876;4.342;2022-10-03T07:29:28;12.30;;;8.53;;
17347;SDS011;8791;50.876;4.342;2022-10-03T07:32:15;14.33;;;8.30;;
17347;SDS011;8791;50.876;4.342;2022-10-03T07:34:52;12.37;;;7.97;;
17347;SDS011;8791;50.876;4.342;2022-10-03T07:38:29;17.77;;;7.93;;
17347;SDS011;8791;50.876;4.342;2022-10-03T07:50:48;9.60;;;7.57;;
17347;SDS011;8791;50.876;4.342;2022-10-03T07:53:30;9.97;;;6.73;;
17347;SDS011;8791;50.876;4.342;2022-10-03T07:56:19;11.27;;;7.60;;
17347;SDS011;8791;50.876;4.342;2022-10-03T07:59:03;11.70;;;7.13;;
17347;SDS011;8791;50.876;4.342;2022-10-03T08:01:53;24.70;;;7.77;;
17347;SDS011;8791;50.876;4.342;2022-10-03T08:04:35;15.60;;;7.47;;
17347;SDS011;8791;50.876;4.342;2022-10-03T08:07:34;14.40;;;7.00;;
17347;SDS011;8791;50.876;4.342;2022-10-03T08:10:19;9.60;;;7.10;;
17347;SDS011;8791;50.876;4.342;2022-10-03T08:13:18;11.93;;;7.23;;
17347;SDS011;8791;50.876;4.342;2022-10-03T08:16:03;13.03;;;7.23;;
17347;SDS011;8791;50.876;4.342;2022-10-03T08:21:51;18.30;;;7.77;;
17347;SDS011;8791;50.876;4.342;2022-10-03T08:24:33;16.63;;;7.60;;
17347;SDS011;8791;50.876;4.342;2022-10-03T08:27:23;14.47;;;7.73;;
17347;SDS011;8791;50.876;4.342;2022-10-03T08:30:17;23.13;;;8.37;;
17347;SDS011;8791;50.876;4.342;2022-10-03T08:32:52;19.70;;;7.50;;
17347;SDS011;8791;50.876;4.342;2022-10-03T08:35:28;15.83;;;7.83;;
17347;SDS011;8791;50.876;4.342;2022-10-03T08:38:29;18.57;;;7.93;;
17347;SDS011;8791;50.876;4.342;2022-10-03T08:44:42;15.47;;;7.93;;
17347;SDS011;8791;50.876;4.342;2022-10-03T08:50:40;31.07;;;7.40;;
17347;SDS011;8791;50.876;4.342;2022-10-03T08:53:29;19.07;;;7.27;;
17347;SDS011;8791;50.876;4.342;2022-10-03T08:56:17;15.70;;;7.37;;
17347;SDS011;8791;50.876;4.342;2022-10-03T08:59:00;13.30;;;7.17;;
17347;SDS011;8791;50.876;4.342;2022-10-03T09:05:01;12.33;;;6.90;;
17347;SDS011;8791;50.876;4.342;2022-10-03T09:08:17;16.73;;;7.30;;
17347;SDS011;8791;50.876;4.342;2022-10-03T09:14:08;12.83;;;6.63;;
17347;SDS011;8791;50.876;4.342;2022-10-03T09:17:11;18.73;;;6.60;;
17347;SDS011;8791;50.876;4.342;2022-10-03T09:26:07;21.97;;;7.53;;
17347;SDS011;8791;50.876;4.342;2022-10-03T09:29:11;22.57;;;8.30;;
17347;SDS011;8791;50.876;4.342;2022-10-03T09:44:12;15.77;;;7.77;;
17347;SDS011;8791;50.876;4.342;2022-10-03T09:47:01;19.13;;;6.90;;
17347;SDS011;8791;50.876;4.342;2022-10-03T09:50:12;17.63;;;6.67;;
17347;SDS011;8791;50.876;4.342;2022-10-03T09:53:16;18.35;;;6.75;;
17347;SDS011;8791;50.876;4.342;2022-10-03T09:58:53;14.18;;;6.15;;
17347;SDS011;8791;50.876;4.342;2022-10-03T10:01:36;19.63;;;7.03;;
17347;SDS011;8791;50.876;4.342;2022-10-03T10:07:25;21.33;;;5.53;;
17347;SDS011;8791;50.876;4.342;2022-10-03T10:13:22;14.82;;;6.88;;
17347;SDS011;8791;50.876;4.342;2022-10-03T10:16:32;16.58;;;4.63;;
17347;SDS011;8791;50.876;4.342;2022-10-03T10:25:17;18.25;;;4.35;;
17347;SDS011;8791;50.876;4.342;2022-10-03T10:28:03;10.95;;;3.97;;
17347;SDS011;8791;50.876;4.342;2022-10-03T10:37:05;16.27;;;3.92;;
17347;SDS011;8791;50.876;4.342;2022-10-03T10:39:57;19.50;;;4.32;;
17347;SDS011;8791;50.876;4.342;2022-10-03T10:43:05;22.92;;;4.07;;
17347;SDS011;8791;50.876;4.342;2022-10-03T10:45:57;12.57;;;2.80;;
17347;SDS011;8791;50.876;4.342;2022-10-03T10:48:52;19.88;;;3.13;;
17347;SDS011;8791;50.876;4.342;2022-10-03T10:51:58;9.63;;;2.88;;
17347;SDS011;8791;50.876;4.342;2022-10-03T10:55:24;15.30;;;2.58;;
17347;SDS011;8791;50.876;4.342;2022-10-03T11:01:20;8.32;;;2.85;;
17347;SDS011;8791;50.876;4.342;2022-10-03T11:04:18;13.95;;;3.00;;
17347;SDS011;8791;50.876;4.342;2022-10-03T11:07:10;16.98;;;3.15;;
17347;SDS011;8791;50.876;4.342;2022-10-03T11:10:10;16.23;;;3.20;;
17347;SDS011;8791;50.876;4.342;2022-10-03T11:19:17;12.45;;;2.92;;
17347;SDS011;8791;50.876;4.342;2022-10-03T11:22:17;11.50;;;3.55;;
17347;SDS011;8791;50.876;4.342;2022-10-03T11:25:24;7.75;;;2.40;;
17347;SDS011;8791;50.876;4.342;2022-10-03T11:28:29;13.38;;;3.08;;
17347;SDS011;8791;50.876;4.342;2022-10-03T11:34:52;17.55;;;2.83;;
17347;SDS011;8791;50.876;4.342;2022-10-03T11:37:41;19.63;;;3.10;;
17347;SDS011;8791;50.876;4.342;2022-10-03T11:40:13;11.13;;;3.22;;
17347;SDS011;8791;50.876;4.342;2022-10-03T11:42:55;12.52;;;3.38;;
17347;SDS011;8791;50.876;4.342;2022-10-03T11:45:43;13.25;;;3.05;;
17347;SDS011;8791;50.876;4.342;2022-10-03T11:48:22;19.20;;;3.10;;
17347;SDS011;8791;50.876;4.342;2022-10-03T11:51:00;9.23;;;2.83;;
17347;SDS011;8791;50.876;4.342;2022-10-03T11:53:35;11.88;;;2.72;;
17347;SDS011;8791;50.876;4.342;2022-10-03T11:56:29;16.45;;;2.70;;
17347;SDS011;8791;50.876;4.342;2022-10-03T11:59:16;30.58;;;13.40;;
17347;SDS011;8791;50.876;4.342;2022-10-03T12:02:08;10.35;;;3.05;;
17347;SDS011;8791;50.876;4.342;2022-10-03T12:04:53;16.52;;;2.72;;
17347;SDS011;8791;50.876;4.342;2022-10-03T12:07:40;10.55;;;3.25;;
17347;SDS011;8791;50.876;4.342;2022-10-03T12:10:35;10.05;;;3.22;;
17347;SDS011;8791;50.876;4.342;2022-10-03T12:13:12;15.27;;;3.03;;
17347;SDS011;8791;50.876;4.342;2022-10-03T12:15:45;13.15;;;3.03;;
17347;SDS011;8791;50.876;4.342;2022-10-03T12:18:15;8.57;;;2.55;;
17347;SDS011;8791;50.876;4.342;2022-10-03T12:21:02;7.18;;;2.67;;
17347;SDS011;8791;50.876;4.342;2022-10-03T12:23:43;9.70;;;3.13;;
17347;SDS011;8791;50.876;4.342;2022-10-03T12:26:24;13.23;;;2.75;;
17347;SDS011;8791;50.876;4.342;2022-10-03T12:28:57;11.55;;;2.50;;
17347;SDS011;8791;50.876;4.342;2022-10-03T12:31:28;24.02;;;3.67;;
17347;SDS011;8791;50.876;4.342;2022-10-03T12:34:02;12.55;;;3.08;;
17347;SDS011;8791;50.876;4.342;2022-10-03T12:36:47;15.13;;;2.97;;
17347;SDS011;8791;50.876;4.342;2022-10-03T12:39:23;15.88;;;2.83;;
17347;SDS011;8791;50.876;4.342;2022-10-03T12:42:03;16.08;;;3.28;;
17347;SDS011;8791;50.876;4.342;2022-10-03T12:44:52;13.70;;;2.60;;
17347;SDS011;8791;50.876;4.342;2022-10-03T12:47:31;14.43;;;2.95;;
17347;SDS011;8791;50.876;4.342;2022-10-03T12:50:12;16.25;;;4.07;;
17347;SDS011;8791;50.876;4.342;2022-10-03T12:52:55;19.02;;;3.88;;
17347;SDS011;8791;50.876;4.342;2022-10-03T12:55:33;19.67;;;3.22;;
17347;SDS011;8791;50.876;4.342;2022-10-03T12:58:04;8.67;;;2.47;;
17347;SDS011;8791;50.876;4.342;2022-10-03T13:00:43;12.40;;;2.33;;
17347;SDS011;8791;50.876;4.342;2022-10-03T13:03:22;10.80;;;2.75;;
17347;SDS011;8791;50.876;4.342;2022-10-03T13:06:07;15.80;;;2.47;;
17347;SDS011;8791;50.876;4.342;2022-10-03T13:08:50;11.05;;;2.28;;
17347;SDS011;8791;50.876;4.342;2022-10-03T13:11:29;7.80;;;2.25;;
17347;SDS011;8791;50.876;4.342;2022-10-03T13:14:03;11.55;;;2.60;;
17347;SDS011;8791;50.876;4.342;2022-10-03T13:16:42;10.30;;;2.17;;
17347;SDS011;8791;50.876;4.342;2022-10-03T13:19:20;10.48;;;2.72;;
17347;SDS011;8791;50.876;4.342;2022-10-03T13:21:55;7.57;;;2.20;;
17347;SDS011;8791;50.876;4.342;2022-10-03T13:24:31;9.13;;;2.45;;
17347;SDS011;8791;50.876;4.342;2022-10-03T13:27:04;16.10;;;2.10;;
17347;SDS011;8791;50.876;4.342;2022-10-03T13:29:52;7.82;;;1.95;;
17347;SDS011;8791;50.876;4.342;2022-10-03T13:32:30;10.40;;;1.92;;
17347;SDS011;8791;50.876;4.342;2022-10-03T13:35:02;10.35;;;2.00;;
17347;SDS011;8791;50.876;4.342;2022-10-03T13:41:10;7.10;;;1.60;;
17347;SDS011;8791;50.876;4.342;2022-10-03T13:43:50;8.05;;;2.22;;
17347;SDS011;8791;50.876;4.342;2022-10-03T13:46:24;6.38;;;2.30;;
17347;SDS011;8791;50.876;4.342;2022-10-03T13:48:56;9.95;;;2.28;;
17347;SDS011;8791;50.876;4.342;2022-10-03T13:51:30;8.18;;;1.75;;
17347;SDS011;8791;50.876;4.342;2022-10-03T13:54:05;6.30;;;1.90;;
17347;SDS011;8791;50.876;4.342;2022-10-03T13:56:46;7.32;;;2.15;;
17347;SDS011;8791;50.876;4.342;2022-10-03T13:59:28;7.10;;;1.92;;
17347;SDS011;8791;50.876;4.342;2022-10-03T14:02:12;10.65;;;2.40;;
17347;SDS011;8791;50.876;4.342;2022-10-03T14:05:03;7.35;;;2.13;;
17347;SDS011;8791;50.876;4.342;2022-10-03T14:07:54;5.97;;;1.80;;
17347;SDS011;8791;50.876;4.342;2022-10-03T14:10:47;11.60;;;1.85;;
17347;SDS011;8791;50.876;4.342;2022-10-03T14:13:31;9.25;;;2.00;;
17347;SDS011;8791;50.876;4.342;2022-10-03T14:16:10;5.00;;;1.38;;
17347;SDS011;8791;50.876;4.342;2022-10-03T14:18:47;6.68;;;1.83;;
17347;SDS011;8791;50.876;4.342;2022-10-03T14:24:15;8.43;;;1.88;;
17347;SDS011;8791;50.876;4.342;2022-10-03T14:26:51;10.35;;;1.80;;
17347;SDS011;8791;50.876;4.342;2022-10-03T14:29:27;10.48;;;1.73;;
17347;SDS011;8791;50.876;4.342;2022-10-03T14:32:05;9.07;;;2.15;;
17347;SDS011;8791;50.876;4.342;2022-10-03T14:34:40;7.90;;;1.35;;
17347;SDS011;8791;50.876;4.342;2022-10-03T14:37:20;7.28;;;2.20;;
17347;SDS011;8791;50.876;4.342;2022-10-03T14:39:58;7.80;;;1.83;;
17347;SDS011;8791;50.876;4.342;2022-10-03T14:42:37;5.47;;;1.70;;
17347;SDS011;8791;50.876;4.342;2022-10-03T14:45:20;10.55;;;2.40;;
17347;SDS011;8791;50.876;4.342;2022-10-03T14:47:51;5.95;;;1.75;;
17347;SDS011;8791;50.876;4.342;2022-10-03T14:50:23;7.28;;;2.10;;
17347;SDS011;8791;50.876;4.342;2022-10-03T14:52:54;10.82;;;2.97;;
17347;SDS011;8791;50.876;4.342;2022-10-03T14:55:29;8.02;;;1.85;;
17347;SDS011;8791;50.876;4.342;2022-10-03T14:57:58;6.80;;;2.78;;
17347;SDS011;8791;50.876;4.342;2022-10-03T15:00:33;4.63;;;2.15;;
17347;SDS011;8791;50.876;4.342;2022-10-03T15:03:19;7.60;;;1.60;;
17347;SDS011;8791;50.876;4.342;2022-10-03T15:05:57;12.00;;;1.63;;
17347;SDS011;8791;50.876;4.342;2022-10-03T15:08:31;9.02;;;1.35;;
17347;SDS011;8791;50.876;4.342;2022-10-03T15:11:04;8.77;;;1.67;;
17347;SDS011;8791;50.876;4.342;2022-10-03T15:13:34;7.47;;;1.75;;
17347;SDS011;8791;50.876;4.342;2022-10-03T15:16:05;5.75;;;2.10;;
17347;SDS011;8791;50.876;4.342;2022-10-03T15:18:34;6.95;;;1.85;;
17347;SDS011;8791;50.876;4.342;2022-10-03T15:21:02;10.55;;;1.77;;
17347;SDS011;8791;50.876;4.342;2022-10-03T15:23:31;5.55;;;1.25;;
17347;SDS011;8791;50.876;4.342;2022-10-03T15:26:02;8.23;;;1.83;;
17347;SDS011;8791;50.876;4.342;2022-10-03T15:28:35;7.00;;;1.88;;
17347;SDS011;8791;50.876;4.342;2022-10-03T15:31:08;5.13;;;1.40;;
17347;SDS011;8791;50.876;4.342;2022-10-03T15:33:38;8.10;;;1.70;;
17347;SDS011;8791;50.876;4.342;2022-10-03T15:36:09;7.95;;;1.65;;
17347;SDS011;8791;50.876;4.342;2022-10-03T15:38:39;9.60;;;2.05;;
17347;SDS011;8791;50.876;4.342;2022-10-03T15:41:10;9.10;;;2.20;;
17347;SDS011;8791;50.876;4.342;2022-10-03T15:43:41;7.93;;;1.30;;
17347;SDS011;8791;50.876;4.342;2022-10-03T15:46:19;8.88;;;2.10;;
17347;SDS011;8791;50.876;4.342;2022-10-03T15:48:54;11.70;;;1.90;;
17347;SDS011;8791;50.876;4.342;2022-10-03T15:51:24;11.40;;;1.58;;
17347;SDS011;8791;50.876;4.342;2022-10-03T15:53:56;7.57;;;2.20;;
17347;SDS011;8791;50.876;4.342;2022-10-03T15:56:30;7.72;;;2.05;;
17347;SDS011;8791;50.876;4.342;2022-10-03T15:59:02;10.70;;;2.47;;
17347;SDS011;8791;50.876;4.342;2022-10-03T16:01:33;4.60;;;1.70;;
17347;SDS011;8791;50.876;4.342;2022-10-03T16:04:04;5.35;;;2.47;;
17347;SDS011;8791;50.876;4.342;2022-10-03T16:06:38;9.30;;;2.80;;
17347;SDS011;8791;50.876;4.342;2022-10-03T16:09:13;12.65;;;2.60;;
17347;SDS011;8791;50.876;4.342;2022-10-03T16:11:52;14.30;;;2.35;;
17347;SDS011;8791;50.876;4.342;2022-10-03T16:14:26;7.80;;;2.33;;
17347;SDS011;8791;50.876;4.342;2022-10-03T16:16:56;9.02;;;2.28;;
17347;SDS011;8791;50.876;4.342;2022-10-03T16:19:32;6.85;;;2.88;;
17347;SDS011;8791;50.876;4.342;2022-10-03T16:22:06;9.50;;;2.83;;
17347;SDS011;8791;50.876;4.342;2022-10-03T16:24:40;12.73;;;2.83;;
17347;SDS011;8791;50.876;4.342;2022-10-03T16:27:14;12.30;;;3.07;;
17347;SDS011;8791;50.876;4.342;2022-10-03T16:29:47;10.85;;;2.97;;
17347;SDS011;8791;50.876;4.342;2022-10-03T16:32:19;14.27;;;4.07;;
17347;SDS011;8791;50.876;4.342;2022-10-03T16:34:49;12.20;;;2.80;;
17347;SDS011;8791;50.876;4.342;2022-10-03T16:37:17;7.47;;;3.10;;
17347;SDS011;8791;50.876;4.342;2022-10-03T16:39:50;7.45;;;2.80;;
17347;SDS011;8791;50.876;4.342;2022-10-03T16:42:22;10.48;;;2.60;;
17347;SDS011;8791;50.876;4.342;2022-10-03T16:44:53;12.07;;;3.60;;
17347;SDS011;8791;50.876;4.342;2022-10-03T16:47:31;11.77;;;2.70;;
17347;SDS011;8791;50.876;4.342;2022-10-03T16:50:00;8.40;;;2.58;;
17347;SDS011;8791;50.876;4.342;2022-10-03T16:52:49;16.17;;;3.83;;
17347;SDS011;8791;50.876;4.342;2022-10-03T16:55:20;13.27;;;3.30;;
17347;SDS011;8791;50.876;4.342;2022-10-03T16:57:50;10.65;;;3.20;;
17347;SDS011;8791;50.876;4.342;2022-10-03T17:00:22;5.90;;;3.10;;
17347;SDS011;8791;50.876;4.342;2022-10-03T17:02:54;8.88;;;3.10;;
17347;SDS011;8791;50.876;4.342;2022-10-03T17:05:22;10.95;;;3.22;;
17347;SDS011;8791;50.876;4.342;2022-10-03T17:07:49;8.00;;;3.58;;
17347;SDS011;8791;50.876;4.342;2022-10-03T17:10:26;7.95;;;3.75;;
17347;SDS011;8791;50.876;4.342;2022-10-03T17:13:00;10.63;;;3.80;;
17347;SDS011;8791;50.876;4.342;2022-10-03T17:15:36;11.70;;;4.50;;
17347;SDS011;8791;50.876;4.342;2022-10-03T17:18:13;13.18;;;4.20;;
17347;SDS011;8791;50.876;4.342;2022-10-03T17:20:46;14.10;;;4.38;;
17347;SDS011;8791;50.876;4.342;2022-10-03T17:23:20;14.18;;;5.78;;
17347;SDS011;8791;50.876;4.342;2022-10-03T17:25:59;11.25;;;5.53;;
17347;SDS011;8791;50.876;4.342;2022-10-03T17:28:37;12.10;;;5.32;;
17347;SDS011;8791;50.876;4.342;2022-10-03T17:31:15;10.88;;;4.82;;
17347;SDS011;8791;50.876;4.342;2022-10-03T17:34:01;9.85;;;5.00;;
17347;SDS011;8791;50.876;4.342;2022-10-03T17:36:55;15.48;;;6.05;;
17347;SDS011;8791;50.876;4.342;2022-10-03T17:39:41;17.98;;;7.18;;
17347;SDS011;8791;50.876;4.342;2022-10-03T17:42:26;10.35;;;5.72;;
17347;SDS011;8791;50.876;4.342;2022-10-03T17:45:02;14.52;;;5.68;;
17347;SDS011;8791;50.876;4.342;2022-10-03T17:47:40;15.33;;;6.90;;
17347;SDS011;8791;50.876;4.342;2022-10-03T17:50:17;12.43;;;5.80;;
17347;SDS011;8791;50.876;4.342;2022-10-03T17:52:50;13.93;;;5.53;;
17347;SDS011;8791;50.876;4.342;2022-10-03T17:55:20;14.17;;;5.47;;
17347;SDS011;8791;50.876;4.342;2022-10-03T17:57:52;11.20;;;5.53;;
17347;SDS011;8791;50.876;4.342;2022-10-03T18:00:23;19.63;;;5.93;;
17347;SDS011;8791;50.876;4.342;2022-10-03T18:02:55;17.43;;;6.27;;
17347;SDS011;8791;50.876;4.342;2022-10-03T18:05:26;16.70;;;6.93;;
17347;SDS011;8791;50.876;4.342;2022-10-03T18:07:55;17.17;;;6.20;;
17347;SDS011;8791;50.876;4.342;2022-10-03T18:10:29;13.43;;;5.60;;
17347;SDS011;8791;50.876;4.342;2022-10-03T18:13:00;16.53;;;6.37;;
17347;SDS011;8791;50.876;4.342;2022-10-03T18:15:43;13.10;;;6.67;;
17347;SDS011;8791;50.876;4.342;2022-10-03T18:21:39;20.07;;;8.03;;
17347;SDS011;8791;50.876;4.342;2022-10-03T18:24:23;20.50;;;7.43;;
17347;SDS011;8791;50.876;4.342;2022-10-03T18:27:15;23.40;;;8.50;;
17347;SDS011;8791;50.876;4.342;2022-10-03T18:30:02;16.23;;;7.90;;
17347;SDS011;8791;50.876;4.342;2022-10-03T18:32:32;19.13;;;9.17;;
17347;SDS011;8791;50.876;4.342;2022-10-03T18:35:06;19.43;;;7.97;;
17347;SDS011;8791;50.876;4.342;2022-10-03T18:37:53;28.50;;;8.63;;
17347;SDS011;8791;50.876;4.342;2022-10-03T18:40:31;20.60;;;8.80;;
17347;SDS011;8791;50.876;4.342;2022-10-03T18:43:00;21.58;;;8.85;;
17347;SDS011;8791;50.876;4.342;2022-10-03T18:45:32;19.17;;;8.67;;
17347;SDS011;8791;50.876;4.342;2022-10-03T18:48:08;23.70;;;9.00;;
17347;SDS011;8791;50.876;4.342;2022-10-03T18:50:44;26.87;;;12.40;;
17347;SDS011;8791;50.876;4.342;2022-10-03T18:53:20;26.57;;;8.97;;
17347;SDS011;8791;50.876;4.342;2022-10-03T18:55:55;20.40;;;10.20;;
17347;SDS011;8791;50.876;4.342;2022-10-03T18:58:26;26.23;;;11.97;;
17347;SDS011;8791;50.876;4.342;2022-10-03T19:00:57;28.10;;;13.30;;
17347;SDS011;8791;50.876;4.342;2022-10-03T19:03:32;30.93;;;15.07;;